createdAt,value
2023-02-14T00:00:06.603Z,44.84
2023-02-14T00:02:58.667Z,44.50
2023-02-14T00:05:27.559Z,44.10
2023-02-14T00:07:56.526Z,43.99
2023-02-14T00:10:25.181Z,44.44
2023-02-14T00:12:54.028Z,44.55
2023-02-14T00:15:25.181Z,44.73
2023-02-14T00:17:56.844Z,44.38
2023-02-14T00:20:27.819Z,44.35
2023-02-14T00:22:56.732Z,44.61
2023-02-14T00:25:25.342Z,44.39
2023-02-14T00:27:56.275Z,44.15
2023-02-14T00:30:25.075Z,44.26
2023-02-14T00:32:54.154Z,43.64
2023-02-14T00:35:22.662Z,44.12
2023-02-14T00:37:53.001Z,43.73
2023-02-14T00:40:21.793Z,43.34
2023-02-14T00:42:50.635Z,44.10
2023-02-14T00:45:20.553Z,43.68
2023-02-14T00:47:49.488Z,43.35
2023-02-14T00:50:20.451Z,43.86
2023-02-14T00:52:49.652Z,43.77
2023-02-14T00:55:20.291Z,43.29
2023-02-14T00:57:49.206Z,43.30
2023-02-14T01:00:18.479Z,43.49
2023-02-14T01:02:47.562Z,43.89
2023-02-14T01:05:16.357Z,43.72
2023-02-14T01:07:45.327Z,43.49
2023-02-14T01:10:14.079Z,43.79
2023-02-14T01:12:44.358Z,43.84
2023-02-14T01:15:13.022Z,44.42
2023-02-14T01:17:42.008Z,44.22
2023-02-14T01:20:11.417Z,44.12
2023-02-14T01:22:40.366Z,44.78
2023-02-14T01:25:09.132Z,45.06
2023-02-14T01:27:38.598Z,44.71
2023-02-14T01:30:09.946Z,45.47
2023-02-14T01:32:38.738Z,45.55
2023-02-14T01:35:07.915Z,46.20
2023-02-14T01:37:37.324Z,46.44
2023-02-14T01:40:08.336Z,45.59
2023-02-14T01:42:38.234Z,46.24
2023-02-14T01:45:15.965Z,45.73
2023-02-14T01:47:48.373Z,46.00
2023-02-14T01:50:23.639Z,47.11
2023-02-14T01:52:56.709Z,46.91
2023-02-14T01:55:28.743Z,46.51
2023-02-14T01:58:01.349Z,45.96
2023-02-14T02:00:49.151Z,45.99
2023-02-14T02:03:19.730Z,46.22
2023-02-14T02:05:52.197Z,46.90
2023-02-14T02:08:21.551Z,46.43
2023-02-14T02:10:50.199Z,46.55
2023-02-14T02:13:23.574Z,46.61
2023-02-14T02:16:12.360Z,47.07
2023-02-14T02:18:54.936Z,47.10
2023-02-14T02:22:00.910Z,47.63
2023-02-14T02:24:35.952Z,47.56
2023-02-14T02:27:26.489Z,47.52
2023-02-14T02:30:31.386Z,47.95
2023-02-14T02:33:36.920Z,47.72
2023-02-14T02:36:22.702Z,47.97
2023-02-14T02:39:06.092Z,48.15
2023-02-14T02:41:47.835Z,48.09
2023-02-14T02:44:19.297Z,48.48
2023-02-14T02:46:56.984Z,49.45
2023-02-14T02:49:55.515Z,49.75
2023-02-14T02:52:51.015Z,52.31
2023-02-14T02:55:27.325Z,51.44
2023-02-14T02:57:57.017Z,50.28
2023-02-14T03:00:26.916Z,50.84
2023-02-14T03:03:16.421Z,50.17
2023-02-14T03:05:45.524Z,50.67
2023-02-14T03:08:19.850Z,52.67
2023-02-14T03:10:48.370Z,54.34
2023-02-14T03:13:46.455Z,53.53
2023-02-14T03:16:42.729Z,55.88
2023-02-14T03:19:50.041Z,56.71
2023-02-14T03:22:28.551Z,54.94
2023-02-14T03:25:07.542Z,54.17
2023-02-14T03:27:42.369Z,54.26
2023-02-14T03:30:19.024Z,56.48
2023-02-14T03:32:52.471Z,56.98
2023-02-14T03:35:27.004Z,57.46
2023-02-14T03:38:02.060Z,54.51
2023-02-14T03:40:37.627Z,56.05
2023-02-14T03:43:11.665Z,55.69
2023-02-14T03:45:44.154Z,58.33
2023-02-14T03:48:15.615Z,57.71
2023-02-14T03:50:48.013Z,56.51
2023-02-14T03:53:22.702Z,55.42
2023-02-14T03:56:01.804Z,55.64
2023-02-14T03:58:34.749Z,54.49
2023-02-14T04:01:12.455Z,57.13
2023-02-14T04:03:43.614Z,58.05
2023-02-14T04:06:12.623Z,58.93
2023-02-14T04:08:41.184Z,58.92
2023-02-14T04:11:11.652Z,58.86
2023-02-14T04:13:41.026Z,57.93
2023-02-14T04:16:10.092Z,56.40
2023-02-14T04:18:56.427Z,57.28
2023-02-14T04:21:25.434Z,58.10
2023-02-14T04:23:53.997Z,58.79
2023-02-14T04:26:24.579Z,58.61
2023-02-14T04:28:53.223Z,56.75
2023-02-14T04:31:22.273Z,54.94
2023-02-14T04:33:51.492Z,54.62
2023-02-14T04:36:20.689Z,53.16
2023-02-14T04:38:49.310Z,53.75
2023-02-14T04:41:18.391Z,53.51
2023-02-14T04:43:48.331Z,53.03
2023-02-14T04:46:17.340Z,53.82
2023-02-14T04:48:46.104Z,52.38
2023-02-14T04:51:15.052Z,53.80
2023-02-14T04:53:44.021Z,53.89
2023-02-14T04:56:12.983Z,54.60
2023-02-14T04:58:41.545Z,57.77
2023-02-14T05:01:12.170Z,58.88
2023-02-14T05:03:40.949Z,59.08
2023-02-14T05:06:09.863Z,58.72
2023-02-14T05:08:38.507Z,58.05
2023-02-14T05:11:07.496Z,56.64
2023-02-14T05:13:36.202Z,56.24
2023-02-14T05:16:05.414Z,55.18
2023-02-14T05:18:35.352Z,54.93
2023-02-14T05:21:04.894Z,55.03
2023-02-14T05:23:33.653Z,55.60
2023-02-14T05:26:02.551Z,56.42
2023-02-14T05:28:31.425Z,56.59
2023-02-14T05:31:00.708Z,55.29
2023-02-14T05:33:29.551Z,54.42
2023-02-14T05:36:02.856Z,55.44
2023-02-14T05:38:33.520Z,55.79
2023-02-14T05:41:02.591Z,55.81
2023-02-14T05:43:31.452Z,55.67
2023-02-14T05:46:00.772Z,56.45
2023-02-14T05:48:29.460Z,55.57
2023-02-14T05:50:58.499Z,56.64
2023-02-14T05:53:28.723Z,57.93
2023-02-14T05:55:57.710Z,56.87
2023-02-14T05:58:26.671Z,56.53
2023-02-14T06:00:57.458Z,57.33
2023-02-14T06:03:26.783Z,57.83
2023-02-14T06:05:55.815Z,58.06
2023-02-14T06:08:26.958Z,57.68
2023-02-14T06:10:57.316Z,56.48
2023-02-14T06:13:26.030Z,55.10
2023-02-14T06:15:54.984Z,54.41
2023-02-14T06:18:27.498Z,54.91
2023-02-14T06:20:57.670Z,55.23
2023-02-14T06:23:26.763Z,57.21
2023-02-14T06:25:57.087Z,56.94
2023-02-14T06:28:25.662Z,54.89
2023-02-14T06:30:54.643Z,55.74
2023-02-14T06:33:23.446Z,55.26
2023-02-14T06:35:55.054Z,57.63
2023-02-14T06:38:23.690Z,56.29
2023-02-14T06:40:52.815Z,56.82
2023-02-14T06:43:22.880Z,58.65
2023-02-14T06:45:51.770Z,59.19
2023-02-14T06:48:20.545Z,59.73
2023-02-14T06:50:49.331Z,59.62
2023-02-14T06:53:18.267Z,60.22
2023-02-14T06:55:47.522Z,60.98
2023-02-14T06:58:16.549Z,61.12
2023-02-14T07:00:47.304Z,59.30
2023-02-14T07:03:16.541Z,60.26
2023-02-14T07:05:46.253Z,59.42
2023-02-14T07:08:14.982Z,58.63
2023-02-14T07:10:43.908Z,59.16
2023-02-14T07:13:12.560Z,58.01
2023-02-14T07:15:41.608Z,57.38
2023-02-14T07:18:11.763Z,57.57
2023-02-14T07:20:40.690Z,56.04
2023-02-14T07:23:09.383Z,55.45
2023-02-14T07:25:39.074Z,57.13
2023-02-14T07:28:07.770Z,56.78
2023-02-14T07:30:36.692Z,55.66
2023-02-14T07:33:05.413Z,54.94
2023-02-14T07:35:36.399Z,57.47
2023-02-14T07:38:05.111Z,58.81
2023-02-14T07:40:34.094Z,57.59
2023-02-14T07:43:02.613Z,57.56
2023-02-14T07:45:31.619Z,57.81
2023-02-14T07:48:02.142Z,60.16
2023-02-14T07:50:31.724Z,59.06
2023-02-14T07:53:02.043Z,60.60
2023-02-14T07:55:30.879Z,58.62
2023-02-14T07:57:59.537Z,59.23
2023-02-14T08:00:28.901Z,58.38
2023-02-14T08:02:57.539Z,60.67
2023-02-14T08:05:26.768Z,60.27
2023-02-14T08:07:55.342Z,59.24
2023-02-14T08:10:25.587Z,59.68
2023-02-14T08:12:58.993Z,60.14
2023-02-14T08:15:46.826Z,62.19
2023-02-14T08:18:15.619Z,61.85
2023-02-14T08:20:44.873Z,61.49
2023-02-14T08:23:13.794Z,59.46
2023-02-14T08:25:44.164Z,59.16
2023-02-14T08:28:13.821Z,58.85
2023-02-14T08:30:43.927Z,60.40
2023-02-14T08:33:12.626Z,57.58
2023-02-14T08:35:41.620Z,57.51
2023-02-14T08:38:10.760Z,55.38
2023-02-14T08:40:39.584Z,54.12
2023-02-14T08:43:09.761Z,54.16
2023-02-14T08:45:39.100Z,53.12
2023-02-14T08:48:10.008Z,55.38
2023-02-14T08:50:40.093Z,56.77
2023-02-14T08:53:10.568Z,55.05
2023-02-14T08:55:40.520Z,56.53
2023-02-14T08:58:10.583Z,58.39
2023-02-14T09:00:39.752Z,56.96
2023-02-14T09:03:08.489Z,58.36
2023-02-14T09:05:37.694Z,58.47
2023-02-14T09:08:07.849Z,58.94
2023-02-14T09:10:37.639Z,59.72
2023-02-14T09:13:06.557Z,60.19
2023-02-14T09:15:36.968Z,60.73
2023-02-14T09:18:05.934Z,60.39
2023-02-14T09:20:35.286Z,61.10
2023-02-14T09:23:03.922Z,60.99
2023-02-14T09:25:33.190Z,61.26
2023-02-14T09:28:01.808Z,61.78
2023-02-14T09:30:30.829Z,61.02
2023-02-14T09:33:04.377Z,60.90
2023-02-14T09:35:39.706Z,60.30
2023-02-14T09:38:20.346Z,59.79
2023-02-14T09:40:50.618Z,60.29
2023-02-14T09:43:26.128Z,61.05
2023-02-14T09:45:59.092Z,60.96
2023-02-14T09:48:33.452Z,60.89
2023-02-14T09:51:06.796Z,60.20
2023-02-14T09:53:41.287Z,61.46
2023-02-14T09:56:17.701Z,61.46
2023-02-14T09:58:56.230Z,61.38
2023-02-14T10:01:30.918Z,60.66
2023-02-14T10:04:16.370Z,60.37
2023-02-14T10:06:51.135Z,61.12
2023-02-14T10:09:48.744Z,60.14
2023-02-14T10:12:24.360Z,60.63
2023-02-14T10:14:56.547Z,60.62
2023-02-14T10:17:37.587Z,59.74
2023-02-14T10:20:20.479Z,61.18
2023-02-14T10:22:56.950Z,60.82
2023-02-14T10:25:30.151Z,61.81
2023-02-14T10:28:03.019Z,61.89
2023-02-14T10:30:39.368Z,61.45
2023-02-14T10:33:17.323Z,60.93
2023-02-14T10:35:50.327Z,59.82
2023-02-14T10:38:45.363Z,60.57
2023-02-14T10:41:26.551Z,62.31
2023-02-14T10:44:05.578Z,62.13
2023-02-14T10:46:42.001Z,60.77
2023-02-14T10:49:26.763Z,60.38
2023-02-14T10:52:03.156Z,61.16
2023-02-14T10:54:39.102Z,61.41
2023-02-14T10:57:15.706Z,62.18
2023-02-14T10:59:52.717Z,61.90
2023-02-14T11:02:25.516Z,60.47
2023-02-14T11:04:55.653Z,60.12
2023-02-14T11:07:25.623Z,60.19
2023-02-14T11:09:54.455Z,60.20
2023-02-14T11:12:39.849Z,58.87
2023-02-14T11:15:22.289Z,56.01
2023-02-14T11:17:52.027Z,56.26
2023-02-14T11:20:27.920Z,56.09
2023-02-14T11:22:58.805Z,55.72
2023-02-14T11:25:31.352Z,55.38
2023-02-14T11:28:03.038Z,56.99
2023-02-14T11:30:37.108Z,55.88
2023-02-14T11:33:06.455Z,55.08
2023-02-14T11:35:35.447Z,55.09
2023-02-14T11:38:07.495Z,55.89
2023-02-14T11:40:38.680Z,54.33
2023-02-14T11:43:21.939Z,54.42
2023-02-14T11:46:05.047Z,56.58
2023-02-14T11:48:38.546Z,56.10
2023-02-14T11:51:10.637Z,56.98
2023-02-14T11:53:47.610Z,57.89
2023-02-14T11:56:18.658Z,58.42
2023-02-14T11:58:51.278Z,59.01
2023-02-14T12:01:26.080Z,59.82
2023-02-14T12:03:57.478Z,58.80
2023-02-14T12:06:28.884Z,56.94
2023-02-14T12:11:56.713Z,55.00
2023-02-14T12:14:28.759Z,53.96
2023-02-14T12:17:03.701Z,53.29
2023-02-14T12:19:43.079Z,53.21
2023-02-14T12:22:17.640Z,53.07
2023-02-14T12:24:57.389Z,55.29
2023-02-14T12:27:34.187Z,56.52
2023-02-14T12:30:08.377Z,57.76
2023-02-14T12:32:37.384Z,58.94
2023-02-14T12:35:15.968Z,57.62
2023-02-14T12:38:04.354Z,59.40
2023-02-14T12:40:49.968Z,58.60
2023-02-14T12:43:45.931Z,59.75
2023-02-14T12:46:31.249Z,60.60
2023-02-14T12:49:30.157Z,60.56
2023-02-14T12:52:09.550Z,61.07
2023-02-14T12:54:50.869Z,61.27
2023-02-14T12:57:34.945Z,61.27
2023-02-14T13:00:20.156Z,60.78
2023-02-14T13:03:22.308Z,61.17
2023-02-14T13:05:59.610Z,60.91
2023-02-14T13:08:43.479Z,60.55
2023-02-14T13:11:19.425Z,59.44
2023-02-14T13:14:03.793Z,60.21
2023-02-14T13:16:40.774Z,60.10
2023-02-14T13:19:32.222Z,60.92
2023-02-14T13:22:02.675Z,59.43
2023-02-14T13:24:39.473Z,60.03
2023-02-14T13:27:13.990Z,60.29
2023-02-14T13:29:48.146Z,58.65
2023-02-14T13:32:22.803Z,59.57
2023-02-14T13:34:52.164Z,58.97
2023-02-14T13:37:23.645Z,59.56
2023-02-14T13:39:56.667Z,59.05
2023-02-14T13:42:53.363Z,58.79
2023-02-14T13:45:53.810Z,57.92
2023-02-14T13:48:26.806Z,57.50
2023-02-14T13:51:00.717Z,57.88
2023-02-14T13:53:38.951Z,58.75
2023-02-14T13:56:34.955Z,58.42
2023-02-14T13:59:06.436Z,59.03
2023-02-14T14:01:40.581Z,58.31
2023-02-14T14:04:39.014Z,60.02
2023-02-14T14:07:30.215Z,59.95
2023-02-14T14:10:03.816Z,60.06
2023-02-14T14:12:53.307Z,60.69
2023-02-14T14:15:22.095Z,60.64
2023-02-14T14:18:26.573Z,61.08
2023-02-14T14:20:56.861Z,60.41
2023-02-14T14:23:34.367Z,60.90
2023-02-14T14:26:03.559Z,59.74
2023-02-14T14:28:34.312Z,59.31
2023-02-14T14:31:03.076Z,59.15
2023-02-14T14:33:34.470Z,59.91
2023-02-14T14:36:08.373Z,59.21
2023-02-14T14:38:49.366Z,59.26
2023-02-14T14:41:18.482Z,59.87
2023-02-14T14:43:48.697Z,59.91
2023-02-14T14:46:18.547Z,60.12
2023-02-14T14:48:50.533Z,59.86
2023-02-14T14:51:26.083Z,59.92
2023-02-14T14:53:59.331Z,59.18
2023-02-14T14:56:31.946Z,59.53
2023-02-14T14:59:18.315Z,59.79
2023-02-14T15:01:47.394Z,59.18
2023-02-14T15:04:19.751Z,59.17
2023-02-14T15:06:50.449Z,59.01
2023-02-14T15:09:24.012Z,58.47
2023-02-14T15:12:11.960Z,57.87
2023-02-14T15:14:44.896Z,56.70
2023-02-14T15:17:19.677Z,56.63
2023-02-14T15:19:54.003Z,55.38
2023-02-14T15:22:26.863Z,55.13
2023-02-14T15:24:55.882Z,55.45
2023-02-14T15:27:26.225Z,54.60
2023-02-14T15:29:58.001Z,54.33
2023-02-14T15:32:29.326Z,52.95
2023-02-14T15:34:59.616Z,55.11
2023-02-14T15:37:29.963Z,55.82
2023-02-14T15:39:59.954Z,54.55
2023-02-14T15:42:32.641Z,55.42
2023-02-14T15:45:23.824Z,56.22
2023-02-14T15:47:55.801Z,54.57
2023-02-14T15:50:27.909Z,53.79
2023-02-14T15:53:03.982Z,54.15
2023-02-14T15:55:34.662Z,53.65
2023-02-14T15:58:06.546Z,54.31
2023-02-14T16:00:36.691Z,53.41
2023-02-14T16:03:09.726Z,54.31
2023-02-14T16:05:39.253Z,54.53
2023-02-14T16:08:29.481Z,54.19
2023-02-14T16:11:04.288Z,55.10
2023-02-14T16:13:35.437Z,56.36
2023-02-14T16:16:06.625Z,56.66
2023-02-14T16:18:38.532Z,55.85
2023-02-14T16:21:19.430Z,57.42
2023-02-14T16:24:06.706Z,56.93
2023-02-14T16:26:38.272Z,56.96
2023-02-14T16:29:08.638Z,57.45
2023-02-14T16:31:43.089Z,57.45
2023-02-14T16:34:17.705Z,58.29
2023-02-14T16:36:46.937Z,58.26
2023-02-14T16:39:19.220Z,59.13
2023-02-14T16:41:50.021Z,58.63
2023-02-14T16:44:20.551Z,57.30
2023-02-14T16:46:49.384Z,57.54
2023-02-14T16:49:18.171Z,58.99
2023-02-14T16:51:48.835Z,59.33
2023-02-14T16:54:21.187Z,59.53
2023-02-14T16:56:53.889Z,60.74
2023-02-14T16:59:22.772Z,60.23
2023-02-14T17:01:51.856Z,60.94
2023-02-14T17:04:21.174Z,60.41
2023-02-14T17:06:54.931Z,60.13
2023-02-14T17:09:29.756Z,61.41
2023-02-14T17:12:03.053Z,61.20
2023-02-14T17:14:37.922Z,61.27
2023-02-14T17:17:06.956Z,61.55
2023-02-14T17:19:35.709Z,61.75
2023-02-14T17:22:05.360Z,61.43
2023-02-14T17:24:35.314Z,61.89
2023-02-14T17:27:04.174Z,61.94
2023-02-14T17:29:32.659Z,62.07
2023-02-14T17:32:01.870Z,62.78
2023-02-14T17:34:32.404Z,62.00
2023-02-14T17:37:02.889Z,61.97
2023-02-14T17:39:31.854Z,62.97
2023-02-14T17:42:02.103Z,62.82
2023-02-14T17:44:32.595Z,61.12
2023-02-14T17:47:01.577Z,59.50
2023-02-14T17:49:30.123Z,59.99
2023-02-14T17:51:59.217Z,59.98
2023-02-14T17:54:27.979Z,61.17
2023-02-14T17:56:57.002Z,59.01
2023-02-14T17:59:26.970Z,59.22
2023-02-14T18:01:55.982Z,58.82
2023-02-14T18:04:24.728Z,58.56
2023-02-14T18:06:53.780Z,57.86
2023-02-14T18:09:22.592Z,56.81
2023-02-14T18:11:51.642Z,57.16
2023-02-14T18:14:20.718Z,56.76
2023-02-14T18:16:50.965Z,55.81
2023-02-14T18:19:19.688Z,56.97
2023-02-14T18:21:48.598Z,56.68
2023-02-14T18:24:17.349Z,56.33
2023-02-14T18:26:46.368Z,55.58
2023-02-14T18:29:15.309Z,55.03
2023-02-14T18:31:45.943Z,54.67
2023-02-14T18:34:16.231Z,53.95
2023-02-14T18:36:45.177Z,53.07
2023-02-14T18:39:14.406Z,53.03
2023-02-14T18:41:43.369Z,52.68
2023-02-14T18:44:13.641Z,52.85
2023-02-14T18:46:42.603Z,52.00
2023-02-14T18:49:13.270Z,51.74
2023-02-14T18:51:43.766Z,52.13
2023-02-14T18:54:12.375Z,51.85
2023-02-14T18:56:41.269Z,51.92
2023-02-14T18:59:11.523Z,52.31
2023-02-14T19:01:44.251Z,52.36
2023-02-14T19:04:13.948Z,52.41
2023-02-14T19:06:44.930Z,52.26
2023-02-14T19:09:16.482Z,53.57
2023-02-14T19:11:46.206Z,55.03
2023-02-14T19:14:14.759Z,54.19
2023-02-14T19:16:50.492Z,53.62
2023-02-14T19:19:20.345Z,53.62
2023-02-14T19:21:50.800Z,53.26
2023-02-14T19:24:21.229Z,52.82
2023-02-14T19:26:50.276Z,52.43
2023-02-14T19:29:21.503Z,52.05
2023-02-14T19:31:53.695Z,52.16
2023-02-14T19:34:25.670Z,51.73
2023-02-14T19:36:57.430Z,51.29
2023-02-14T19:39:29.389Z,51.07
2023-02-14T19:41:58.779Z,50.80
2023-02-14T19:44:29.285Z,51.05
2023-02-14T19:47:00.181Z,50.56
2023-02-14T19:49:29.906Z,50.26
2023-02-14T19:52:00.238Z,50.58
2023-02-14T19:54:30.077Z,50.30
2023-02-14T19:56:59.326Z,50.31
2023-02-14T19:59:28.229Z,50.15
2023-02-14T20:01:58.442Z,50.41
2023-02-14T20:04:29.408Z,50.47
2023-02-14T20:07:00.509Z,49.99
2023-02-14T20:09:29.386Z,50.00
2023-02-14T20:12:01.230Z,50.22
2023-02-14T20:14:40.774Z,50.15
2023-02-14T20:17:17.226Z,50.19
2023-02-14T20:19:45.770Z,49.87
2023-02-14T20:22:16.266Z,50.12
2023-02-14T20:24:45.150Z,50.28
2023-02-14T20:27:14.074Z,49.96
2023-02-14T20:29:45.063Z,50.01
2023-02-14T20:32:16.402Z,50.32
2023-02-14T20:34:45.488Z,50.57
2023-02-14T20:37:15.999Z,50.33
2023-02-14T20:39:44.858Z,50.69
2023-02-14T20:42:14.016Z,50.64
2023-02-14T20:44:43.006Z,50.45
2023-02-14T20:47:12.860Z,51.02
2023-02-14T20:49:44.754Z,50.82
2023-02-14T20:52:18.047Z,50.44
2023-02-14T20:54:46.749Z,50.39
2023-02-14T20:57:15.790Z,50.93
2023-02-14T20:59:45.431Z,50.74
2023-02-14T21:02:15.967Z,50.49
2023-02-14T21:04:44.653Z,50.67
2023-02-14T21:07:15.383Z,50.91
2023-02-14T21:09:44.112Z,51.19
2023-02-14T21:12:13.528Z,51.18
2023-02-14T21:14:42.252Z,51.22
2023-02-14T21:17:11.555Z,51.53
2023-02-14T21:19:40.190Z,51.73
2023-02-14T21:22:09.203Z,51.58
2023-02-14T21:24:39.213Z,51.67
2023-02-14T21:27:08.139Z,51.75
2023-02-14T21:29:37.116Z,51.92
2023-02-14T21:32:06.575Z,51.70
2023-02-14T21:34:36.072Z,52.04
2023-02-14T21:37:04.913Z,51.84
2023-02-14T21:39:35.809Z,52.04
2023-02-14T21:42:07.621Z,51.97
2023-02-14T21:44:53.479Z,52.11
2023-02-14T21:47:22.644Z,52.47
2023-02-14T21:50:08.669Z,52.30
2023-02-14T21:52:37.982Z,52.40
2023-02-14T21:55:07.502Z,51.97
2023-02-14T21:57:38.005Z,52.17
2023-02-14T22:00:08.122Z,52.21
2023-02-14T22:02:40.355Z,52.72
2023-02-14T22:05:09.468Z,52.46
2023-02-14T22:07:39.131Z,52.39
2023-02-14T22:10:08.385Z,52.07
2023-02-14T22:12:38.916Z,52.83
2023-02-14T22:15:08.181Z,52.19
2023-02-14T22:17:37.847Z,52.30
2023-02-14T22:20:10.259Z,51.55
2023-02-14T22:22:39.298Z,51.59
2023-02-14T22:25:08.395Z,51.64
2023-02-14T22:27:41.029Z,51.26
2023-02-14T22:30:10.223Z,51.12
2023-02-14T22:32:39.287Z,51.17
2023-02-14T22:35:08.949Z,50.30
2023-02-14T22:37:37.933Z,51.10
2023-02-14T22:40:07.933Z,50.48
2023-02-14T22:42:36.949Z,50.56
2023-02-14T22:45:07.659Z,50.15
2023-02-14T22:47:37.320Z,50.50
2023-02-14T22:50:07.227Z,50.03
2023-02-14T22:52:36.455Z,50.00
2023-02-14T22:55:05.517Z,49.84
2023-02-14T22:57:34.432Z,50.09
2023-02-14T23:00:03.072Z,50.61
2023-02-14T23:02:33.364Z,50.27
2023-02-14T23:05:01.935Z,50.43
2023-02-14T23:07:32.283Z,50.63
2023-02-14T23:10:01.144Z,50.43
2023-02-14T23:12:47.473Z,49.66
2023-02-14T23:15:33.999Z,49.95
2023-02-14T23:18:22.379Z,49.24
2023-02-14T23:21:11.046Z,49.88
2023-02-14T23:23:40.011Z,49.91
2023-02-14T23:26:08.537Z,49.68
2023-02-14T23:28:37.696Z,49.25
2023-02-14T23:31:06.760Z,49.65
2023-02-14T23:33:37.169Z,49.43
2023-02-14T23:36:06.678Z,49.29
2023-02-14T23:38:35.844Z,49.14
2023-02-14T23:41:27.486Z,49.15
2023-02-14T23:43:56.510Z,49.07
2023-02-14T23:46:25.166Z,49.06
2023-02-14T23:48:56.335Z,48.91
2023-02-14T23:51:25.092Z,49.34
2023-02-14T23:53:54.450Z,48.81
2023-02-14T23:56:23.018Z,49.14
2023-02-14T23:58:52.147Z,49.26
